Data for 03/17/2007

Time Sea-Level Adjusted Pressure Absolute Pressure Temperature Relative Humidity Dew Point   
(mb) (inHg) (mb) (inHg) (C) (F) (%) (C) (F)
00:05 1020 30.12 850 25.1 7.3 45.2 57 -0.5 31.1
00:10 1020 30.12 850 25.1 7.6 45.6 58 -0.2 31.7
00:15 1020 30.12 850 25.1 7.5 45.4 58 -0.3 31.5
00:20 1020 30.12 850 25.1 7.5 45.5 58 -0.3 31.5
00:25 1020 30.12 850 25.1 6.9 44.4 61 -0.1 31.7
00:30 1020 30.12 850 25.1 6.5 43.7 61 -0.4 31.2
00:35 1021 30.15 850 25.1 6.4 43.6 62 -0.3 31.5
00:40 1021 30.15 850 25.1 6.5 43.7 61 -0.3 31.4
00:45 1021 30.15 850 25.1 6.4 43.6 62 -0.4 31.3
00:50 1021 30.15 850 25.1 6.5 43.6 61 -0.4 31.3
00:55 1021 30.15 850 25.1 6.4 43.5 62 -0.4 31.3
01:00 1021 30.15 850 25.1 6.3 43.3 62 -0.5 31.1
01:05 1021 30.15 850 25.1 6 42.8 63 -0.6 31
01:10 1021 30.15 850 25.1 5.7 42.3 64 -0.4 31.2
01:15 1021 30.15 850 25.1 5.2 41.3 67 -0.5 31.1
01:20 1021 30.15 850 25.1 5.1 41.2 67 -0.6 31
01:25 1021 30.15 850 25.1 5 41 67 -0.6 30.9
01:30 1021 30.15 850 25.1 5.1 41.1 66 -0.6 30.9
01:35 1021 30.15 850 25.1 5.1 41.2 66 -0.6 31
01:40 1021 30.15 850 25.1 5.1 41.3 66 -0.6 30.9
01:45 1020 30.12 850 25.1 5.4 41.7 64 -0.8 30.5
01:50 1020 30.12 850 25.1 5.6 42.1 64 -0.8 30.6
01:55 1020 30.12 850 25.1 5.9 42.7 62 -0.8 30.6
02:00 1020 30.12 850 25.1 6.1 43 61 -0.7 30.7
02:05 1020 30.12 850 25.1 6 42.9 62 -0.7 30.8
02:10 1020 30.12 850 25.1 6.2 43.1 61 -0.8 30.6
02:15 1020 30.12 850 25.1 6.4 43.5 61 -0.6 30.8
02:20 1020 30.12 850 25.1 6.5 43.7 60 -0.8 30.6
02:25 1020 30.12 850 25.1 6.1 42.9 62 -0.6 30.9
02:30 1020 30.12 850 25.1 5.6 42.1 64 -0.5 31
02:35 1020 30.12 850 25.1 5.6 42 64 -0.8 30.6
02:40 1020 30.12 850 25.1 5.6 42.1 63 -0.7 30.7
02:45 1020 30.12 849 25.07 5.2 41.4 65 -0.7 30.7
02:50 1020 30.12 849 25.07 4.9 40.8 67 -0.8 30.6
02:55 1020 30.12 849 25.07 4.6 40.2 68 -0.8 30.5
03:00 1020 30.12 849 25.07 4.3 39.7 68 -1.1 30
03:05 1020 30.12 849 25.07 4.2 39.6 69 -1 30.1
03:10 1020 30.12 849 25.07 4.8 40.6 65 -1.1 30
03:15 1020 30.12 849 25.07 5 41 66 -0.8 30.5
03:20 1020 30.12 849 25.07 4.8 40.6 66 -1 30.2
03:25 1020 30.12 849 25.07 5.1 41.2 64 -1.1 30.1
03:30 1020 30.12 849 25.07 5.6 42 63 -1 30.2
03:35 1020 30.12 849 25.07 5.6 42 63 -0.9 30.4
03:40 1020 30.12 849 25.07 5.8 42.4 61 -1.1 30
03:45 1020 30.12 849 25.07 6 42.9 61 -0.9 30.3
03:50 1020 30.12 849 25.07 5.9 42.7 62 -0.9 30.4
03:55 1020 30.12 849 25.07 6 42.8 61 -1 30.1
04:00 1020 30.12 849 25.07 6.2 43.1 60 -0.9 30.3
04:05 1020 30.12 849 25.07 6.2 43.1 61 -0.9 30.5
04:10 1020 30.12 849 25.07 5.8 42.4 62 -1 30.2
04:15 1020 30.12 849 25.07 5.8 42.5 60 -1.2 29.8
04:20 1020 30.12 849 25.07 6.2 43.2 59 -1.2 29.8
04:25 1020 30.12 849 25.07 6.2 43.2 59 -1.3 29.7
04:30 1020 30.12 849 25.07 6.7 44.1 55 -1.6 29.1
04:35 1020 30.12 849 25.07 7.1 44.7 55 -1.2 29.8
04:40 1020 30.12 849 25.07 6.5 43.6 58 -1.2 29.8
04:45 1019 30.09 849 25.07 6.2 43.1 58 -1.4 29.4
04:50 1019 30.09 849 25.07 5.8 42.5 59 -1.5 29.4
04:55 1019 30.09 849 25.07 5.7 42.2 62 -1 30.2
05:00 1019 30.09 849 25.07 5 41 65 -1.1 30
05:05 1019 30.09 849 25.07 4.2 39.5 67 -1.4 29.5
05:10 1019 30.09 849 25.07 3.1 37.5 72 -1.4 29.5
05:15 1020 30.12 849 25.07 2.5 36.6 74 -1.6 29.1
05:20 1019 30.09 849 25.07 2.9 37.2 71 -1.9 28.7
05:25 1020 30.12 849 25.07 3.3 37.9 71 -1.6 29.2
05:30 1020 30.12 849 25.07 3.3 37.9 70 -1.7 29
05:35 1020 30.12 849 25.07 3.9 39 66 -1.9 28.6
05:40 1020 30.12 849 25.07 4.5 40.1 64 -1.7 28.9
05:45 1020 30.12 849 25.07 4.8 40.6 63 -1.8 28.8
05:50 1020 30.12 849 25.07 5 41 62 -1.7 28.9
05:55 1020 30.12 849 25.07 4.9 40.9 64 -1.3 29.6
06:00 1020 30.12 849 25.07 4.4 40 65 -1.6 29.1
06:05 1020 30.12 849 25.07 4.3 39.8 65 -1.6 29.1
06:10 1020 30.12 849 25.07 4.7 40.4 64 -1.5 29.4
06:15 1020 30.12 849 25.07 4.6 40.4 64 -1.6 29.1
06:20 1020 30.12 849 25.07 4.5 40.1 65 -1.4 29.4
06:25 1020 30.12 849 25.07 4.7 40.4 63 -1.7 29
06:30 1020 30.12 849 25.07 4.8 40.6 62 -1.8 28.8
06:35 1020 30.12 849 25.07 5.1 41.2 61 -1.8 28.7
06:40 1020 30.12 849 25.07 5.4 41.8 60 -1.6 29.1
06:45 1020 30.12 849 25.07 5.2 41.4 62 -1.5 29.2
06:50 1020 30.12 849 25.07 4.8 40.6 62 -1.8 28.7
06:55 1020 30.12 849 25.07 5.2 41.3 60 -2 28.4
07:00 1019 30.09 849 25.07 5.2 41.4 61 -1.7 28.9
07:05 1019 30.09 849 25.07 4.6 40.4 64 -1.6 29.2
07:10 1019 30.09 849 25.07 4.1 39.4 66 -1.6 29.1
07:15 1019 30.09 849 25.07 3.9 38.9 67 -1.8 28.8
07:20 1019 30.09 849 25.07 3.4 38.2 70 -1.5 29.3
07:25 1019 30.09 849 25.07 2.8 37.1 72 -1.7 28.9
07:30 1019 30.09 849 25.07 2.9 37.2 71 -1.9 28.6
07:35 1019 30.09 849 25.07 2.9 37.2 72 -1.7 29
07:40 1019 30.09 849 25.07 2.6 36.7 72 -1.9 28.5
07:45 1019 30.09 849 25.07 2.9 37.2 71 -1.8 28.7
07:50 1019 30.09 848 25.04 3 37.4 71 -1.8 28.7
07:55 1019 30.09 848 25.04 3 37.4 71 -1.8 28.8
08:00 1019 30.09 848 25.04 3.1 37.6 68 -2.1 28.2
08:05 1019 30.09 849 25.07 4.2 39.5 63 -2.2 28
08:10 1019 30.09 849 25.07 4.6 40.3 63 -1.8 28.7
08:15 1019 30.09 849 25.07 4.9 40.8 61 -2 28.3
08:20 1019 30.09 848 25.04 5.7 42.2 58 -2 28.3
08:25 1019 30.09 849 25.07 5.7 42.2 59 -1.7 29
08:30 1019 30.09 849 25.07 5.9 42.7 57 -2 28.4
08:35 1019 30.09 849 25.07 6.2 43.2 56 -1.8 28.7
08:40 1019 30.09 849 25.07 6.6 43.8 54 -2 28.3
08:45 1019 30.09 849 25.07 6.8 44.2 54 -1.8 28.8
08:50 1019 30.09 849 25.07 6.4 43.6 57 -1.6 29.2
08:55 1019 30.09 849 25.07 6.3 43.3 57 -1.6 29.1
09:00 1019 30.09 848 25.04 6.8 44.2 54 -1.8 28.7
09:05 1019 30.09 849 25.07 6.6 43.9 58 -1.1 30
09:10 1019 30.09 849 25.07 6.4 43.6 57 -1.4 29.4
09:15 1019 30.09 849 25.07 6.7 44.1 56 -1.4 29.4
09:20 1019 30.09 849 25.07 6.8 44.3 56 -1.2 29.8
09:25 1019 30.09 849 25.07 7.1 44.8 55 -1.4 29.5
09:30 1019 30.09 848 25.04 7.4 45.3 53 -1.6 29.1
09:35 1019 30.09 848 25.04 7.6 45.7 53 -1.3 29.7
09:40 1019 30.09 848 25.04 8.1 46.7 52 -1.1 30
09:45 1019 30.09 849 25.07 8.6 47.5 50 -1.2 29.8
09:50 1019 30.09 849 25.07 9.2 48.5 48 -1.3 29.6
09:55 1019 30.09 848 25.04 10.1 50.1 46 -1 30.2
10:00 1019 30.09 848 25.04 10.6 51.1 45 -0.8 30.5
10:05 1019 30.09 848 25.04 11.2 52.1 43 -1 30.2
10:10 1019 30.09 848 25.04 11.9 53.3 41 -1.1 30.1
10:15 1019 30.09 848 25.04 12 53.5 40 -1 30.1
10:20 1019 30.09 848 25.04 12.1 53.7 40 -1.1 30.1
10:25 1019 30.09 848 25.04 12.7 54.9 38 -1.2 29.8
10:30 1019 30.09 848 25.04 13.5 56.2 35 -1.5 29.3
10:35 1019 30.09 848 25.04 14.2 57.6 34 -1.3 29.6
10:40 1019 30.09 848 25.04 14.8 58.6 33 -1.4 29.5
10:45 1019 30.09 848 25.04 14.5 58 34 -1.2 29.9
10:50 1019 30.09 848 25.04 14.3 57.7 34 -1.5 29.3
10:55 1019 30.09 848 25.04 15 58.9 32 -1.3 29.6
11:00 1019 30.09 848 25.04 15 59 33 -1 30.2
11:05 1019 30.09 848 25.04 14.4 58 33 -1.4 29.5
11:10 1019 30.09 848 25.04 14.9 58.8 33 -1.2 29.8
11:15 1019 30.09 848 25.04 14.3 57.7 34 -1.4 29.6
11:20 1019 30.09 848 25.04 14.7 58.4 32 -1.7 28.9
11:25 1019 30.09 848 25.04 14.7 58.5 31 -1.9 28.5
11:30 1019 30.09 848 25.04 15.5 59.9 30 -1.7 28.9
11:35 1018 30.06 848 25.04 15 59.1 32 -1.5 29.3
11:40 1018 30.06 848 25.04 15.2 59.4 31 -1.9 28.6
11:45 1018 30.06 848 25.04 15.9 60.7 30 -1.4 29.5
11:50 1018 30.06 848 25.04 15.7 60.3 29 -2.2 28.1
11:55 1018 30.06 847 25.01 16.5 61.7 29 -1.7 29
12:00 1018 30.06 847 25.01 16 60.7 29 -1.9 28.6
12:05 1018 30.06 847 25.01 16.1 61 29 -2 28.3
12:10 1018 30.06 847 25.01 16.8 62.2 27 -2 28.4
12:15 1018 30.06 847 25.01 17.7 63.8 26 -1.7 28.9
12:20 1018 30.06 847 25.01 17.8 64.1 26 -1.9 28.6
12:25 1018 30.06 847 25.01 17.4 63.2 28 -1.1 30.1
12:30 1018 30.06 847 25.01 16.4 61.6 29 -1.4 29.5
12:35 1018 30.06 847 25.01 17.1 62.8 27 -1.8 28.8
12:40 1018 30.06 847 25.01 16.8 62.2 29 -1.1 30.1
12:45 1018 30.06 847 25.01 17 62.5 28 -1.8 28.8
12:50 1017 30.03 847 25.01 17.8 64.1 26 -1.8 28.7
12:55 1017 30.03 847 25.01 18.4 65.1 27 -1 30.1
13:00 1017 30.03 847 25.01 18.6 65.5 26 -1.1 29.9
13:05 1017 30.03 846 24.98 18.8 65.9 25 -1.7 29
13:10 1017 30.03 846 24.98 19.3 66.7 24 -1.5 29.3
13:15 1017 30.03 846 24.98 19.6 67.3 24 -1.2 29.8
13:20 1017 30.03 846 24.98 20.1 68.1 23 -1.3 29.7
13:25 1017 30.03 846 24.98 20 67.9 24 -1.2 29.8
13:30 1017 30.03 846 24.98 19.1 66.3 23 -2.5 27.4
13:35 1017 30.03 846 24.98 19.3 66.8 22 -2.9 26.8
13:40 1017 30.03 846 24.98 18.7 65.7 22 -3.3 26
13:45 1017 30.03 846 24.98 18.9 66 22 -3.2 26.2
13:50 1017 30.03 846 24.98 18.7 65.6 21 -3.8 25.2
13:55 1017 30.03 846 24.98 18.9 66 21 -3.5 25.7
14:00 1016 30 846 24.98 18.7 65.7 21 -3.9 25
14:05 1016 30 846 24.98 18.9 66.1 21 -3.4 25.8
14:10 1016 30 845 24.95 19.5 67 20 -3.9 25
14:15 1016 30 845 24.95 19.5 67.2 20 -4.1 24.5
14:20 1016 30 845 24.95 20.2 68.3 19 -4 24.8
14:25 1016 30 845 24.95 19.9 67.8 18 -5 23
14:30 1016 30 845 24.95 20 68.1 19 -4.1 24.7
14:35 1016 30 845 24.95 19.9 67.8 20 -3.7 25.3
14:40 1016 30 845 24.95 19.5 67.1 20 -3.6 25.5
14:45 1016 30 845 24.95 19.6 67.3 18 -4.9 23.2
14:50 1016 30 845 24.95 19.7 67.5 19 -4.2 24.5
14:55 1016 30 845 24.95 20.2 68.3 18 -4.4 24.1
15:00 1016 30 845 24.95 20.7 69.2 18 -4.3 24.3
15:05 1015 29.97 845 24.95 20.9 69.6 18 -3.9 25
15:10 1015 29.97 844 24.92 21 69.8 20 -2.7 27.1
15:15 1015 29.97 844 24.92 20.4 68.7 19 -4.1 24.7
15:20 1015 29.97 844 24.92 20.7 69.2 19 -3.4 25.8
15:25 1015 29.97 844 24.92 20.7 69.3 20 -3.1 26.3
15:30 1015 29.97 844 24.92 20.1 68.1 22 -2.4 27.6
15:35 1015 29.97 844 24.92 20.6 69.1 21 -2.6 27.3
15:40 1015 29.97 844 24.92 20.8 69.5 21 -2.4 27.6
15:45 1015 29.97 844 24.92 20.4 68.7 21 -2.7 27.1
15:50 1015 29.97 844 24.92 20.5 68.8 21 -2.5 27.5
15:55 1015 29.97 844 24.92 20.1 68.2 21 -2.9 26.7
16:00 1015 29.97 844 24.92 19.6 67.4 22 -2.6 27.4
16:05 1015 29.97 844 24.92 20.2 68.3 20 -3.2 26.2
16:10 1015 29.97 844 24.92 20.6 69 20 -2.9 26.8
16:15 1015 29.97 844 24.92 21 69.8 20 -2.4 27.7
16:20 1015 29.97 844 24.92 20.9 69.6 21 -2.1 28.3
16:25 1015 29.97 844 24.92 19.7 67.4 23 -1.9 28.5
16:30 1014 29.94 844 24.92 19.9 67.8 21 -2.6 27.3
16:35 1014 29.94 844 24.92 19.7 67.4 21 -2.9 26.7
16:40 1014 29.94 844 24.92 19.1 66.5 21 -3.3 26.1
16:45 1014 29.94 844 24.92 19 66.2 23 -2.6 27.3
16:50 1014 29.94 844 24.92 19 66.2 21 -3.4 25.8
16:55 1014 29.94 843 24.89 19.5 67 21 -3 26.5
17:00 1014 29.94 843 24.89 19.5 67 22 -2.6 27.3
17:05 1014 29.94 843 24.89 19.8 67.6 21 -2.8 27
17:10 1014 29.94 843 24.89 19.8 67.6 21 -3.1 26.4
17:15 1014 29.94 843 24.89 19.8 67.6 20 -3.6 25.5
17:20 1014 29.94 843 24.89 19.9 67.9 20 -3.6 25.6
17:25 1014 29.94 843 24.89 19.8 67.6 20 -3.7 25.3
17:30 1014 29.94 843 24.89 19.7 67.5 19 -4.7 23.6
17:35 1014 29.94 843 24.89 19.9 67.8 18 -4.9 23.2
17:40 1014 29.94 843 24.89 20 68 19 -4.4 24.1
17:45 1014 29.94 843 24.89 20.4 68.8 18 -4.4 24
17:50 1014 29.94 843 24.89 20.2 68.4 19 -4.1 24.7
17:55 1014 29.94 843 24.89 20.1 68.2 19 -3.9 25
18:00 1014 29.94 843 24.89 20.4 68.6 18 -4.8 23.3
18:05 1014 29.94 843 24.89 20.3 68.5 18 -4.9 23.3
18:10 1013 29.91 843 24.89 20.3 68.5 18 -4.6 23.8
18:15 1014 29.94 843 24.89 20.4 68.7 18 -4.4 24
18:20 1014 29.94 843 24.89 20.4 68.8 17 -5.1 22.9
18:25 1013 29.91 843 24.89 20.3 68.6 18 -4.7 23.5
18:30 1013 29.91 843 24.89 20 68 18 -4.8 23.4
18:35 1013 29.91 843 24.89 19.9 67.7 18 -4.7 23.5
18:40 1013 29.91 843 24.89 19.7 67.4 19 -4.5 23.9
18:45 1013 29.91 843 24.89 19.1 66.4 20 -4.4 24.2
18:50 1013 29.91 843 24.89 18.6 65.5 21 -4.2 24.4
18:55 1013 29.91 843 24.89 18.2 64.7 21 -4.2 24.4
19:00 1014 29.94 843 24.89 17.9 64.2 22 -4.3 24.2
19:05 1014 29.94 843 24.89 17.6 63.7 21 -4.7 23.6
19:10 1014 29.94 843 24.89 17.5 63.4 21 -4.8 23.3
19:15 1014 29.94 843 24.89 17.3 63.1 21 -4.9 23.3
19:20 1014 29.94 843 24.89 17 62.5 22 -4.7 23.5
19:25 1014 29.94 843 24.89 16.7 62.1 23 -4.6 23.6
19:30 1014 29.94 843 24.89 16.5 61.6 23 -4.7 23.5
19:35 1014 29.94 843 24.89 16.3 61.4 23 -5 23
19:40 1014 29.94 843 24.89 16.2 61.2 22 -5.1 22.7
19:45 1013 29.91 843 24.89 16.2 61.2 23 -5.1 22.9
19:50 1014 29.94 843 24.89 16 60.8 23 -5.1 22.8
19:55 1014 29.94 843 24.89 16 60.8 23 -5.2 22.6
20:00 1014 29.94 843 24.89 15.9 60.6 23 -5 23
20:05 1014 29.94 843 24.89 15.7 60.2 24 -4.7 23.6
20:10 1014 29.94 843 24.89 15.3 59.5 25 -4.6 23.7
20:15 1013 29.91 843 24.89 15.2 59.3 26 -4.3 24.3
20:20 1013 29.91 843 24.89 14.2 57.5 29 -3.8 25.2
20:25 1013 29.91 843 24.89 13.9 57.1 29 -3.9 25.1
20:30 1013 29.91 843 24.89 13.8 56.9 29 -3.7 25.3
20:35 1013 29.91 843 24.89 13.4 56.1 30 -3.7 25.3
20:40 1013 29.91 843 24.89 13.3 56 30 -3.8 25.2
20:45 1013 29.91 843 24.89 13.3 55.9 30 -3.7 25.3
20:50 1013 29.91 842 24.86 13.2 55.8 30 -3.9 25
20:55 1013 29.91 843 24.89 13 55.4 31 -3.7 25.3
21:00 1013 29.91 843 24.89 12.6 54.7 31 -4.2 24.4
21:05 1013 29.91 843 24.89 12.6 54.7 31 -4.1 24.6
21:10 1013 29.91 843 24.89 12.4 54.4 30 -4.6 23.7
21:15 1013 29.91 843 24.89 12.2 53.9 32 -4.1 24.7
21:20 1013 29.91 843 24.89 11.9 53.3 32 -4.1 24.6
21:25 1013 29.91 843 24.89 11.6 52.9 33 -4 24.9
21:30 1013 29.91 843 24.89 11.5 52.6 33 -4.2 24.5
21:35 1013 29.91 842 24.86 11.4 52.6 33 -4.1 24.6
21:40 1013 29.91 842 24.86 11.4 52.6 33 -4.2 24.5
21:45 1013 29.91 842 24.86 11.5 52.8 34 -3.8 25.1
21:50 1013 29.91 842 24.86 11.6 52.8 33 -4.1 24.6
21:55 1013 29.91 842 24.86 11.7 53.1 33 -3.9 24.9
22:00 1013 29.91 842 24.86 11.8 53.2 35 -3.3 26
22:05 1013 29.91 842 24.86 11.5 52.7 35 -3.6 25.6
22:10 1013 29.91 842 24.86 11.9 53.4 33 -3.8 25.1
22:15 1013 29.91 842 24.86 12 53.5 34 -3.3 26.1
22:20 1013 29.91 842 24.86 11.7 53.1 34 -3.5 25.8
22:25 1013 29.91 842 24.86 11.5 52.7 34 -3.7 25.4
22:30 1013 29.91 842 24.86 11.5 52.7 35 -3.4 25.9
22:35 1013 29.91 842 24.86 10.6 51 39 -2.8 27
22:40 1013 29.91 842 24.86 9.8 49.6 38 -3.7 25.3
22:45 1013 29.91 842 24.86 10.1 50.2 37 -3.9 24.9
22:50 1013 29.91 842 24.86 10.6 51.1 35 -4.2 24.4
22:55 1013 29.91 842 24.86 10.9 51.5 35 -4.2 24.5
23:00 1013 29.91 842 24.86 11.1 52 33 -4.3 24.2
23:05 1013 29.91 842 24.86 11.3 52.3 34 -4 24.8
23:10 1013 29.91 842 24.86 11.1 51.9 34 -4 24.8
23:15 1013 29.91 842 24.86 11 51.8 34 -4.3 24.2
23:20 1013 29.91 842 24.86 11.6 52.8 32 -4.4 24.1
23:25 1013 29.91 842 24.86 11.4 52.5 34 -3.9 24.9
23:30 1013 29.91 842 24.86 11.1 52.1 34 -4.2 24.5
23:35 1013 29.91 842 24.86 11.4 52.4 33 -4.4 24.2
23:40 1013 29.91 842 24.86 11.9 53.4 32 -4 24.7
23:45 1013 29.91 842 24.86 11.8 53.2 33 -3.9 25
23:50 1013 29.91 842 24.86 11.6 52.8 34 -3.6 25.6
23:55 1013 29.91 842 24.86 11.3 52.3 35 -3.5 25.6
24:00 1013 29.91 842 24.86 11.1 51.9 35 -3.8 25.1